Marydell, Kentucky
Current Conditions -  °F | °C
As of 3:53 PM on Tuesday 27 Jan 2015 (Local Time) from KLOZ Reporting Station
Overcast Overcast  
Wind Chill: 25°   Ceiling: 2500
Heat Index: 32°   Visibility: 10mi
Dew Point: 19°   Wind: 8mph
Humidity: 59%   Direction: 320°NW
Pressure: 30.04"   Gusts: NA
Location:  37.11°N, 83.91°W
Report Text: KLOZ 272053Z AUTO 32007KT 10SM OVC025 00/M07 A3004 RMK AO2 SLP181 T00001072 53009
Loading
Personal Weather Stations






























Interactive Weather Map New forecast layout! Learn more

10-Day Weather Forecast

Advertisements
Track Severe Weather on mobile